Terminal Aerodrome Forecast
Issued by NWS

Home | Current Version | Previous Version | Text Only | Print | Product List | Glossary On
Versions: 1 2 3 4 5 6 7 8 9 10 11 12 13 14 15 16 17 18 19 20 21 22 23 24 25
000
FTUS45 KCYS 222300
TAFAIA
TAF
KAIA 222338Z 2300/2324 13010KT P6SM VCTS FEW080CB
     FM230500 15008KT P6SM SKC
     FM231800 17013G22KT P6SM VCTS SCT100CB=

USA.gov is the U.S. government's official web portal to all federal, state and local government web resources and services.